Date,TemperatureHighF,TemperatureAvgF,TemperatureLowF,DewpointHighF,DewpointAvgF,DewpointLowF,HumidityHigh,HumidityAvg,HumidityLow,PressureMaxIn,PressureMinIn,WindSpeedMaxMPH,WindSpeedAvgMPH,GustSpeedMaxMPH,PrecipitationSumIn
2013-3-1,59.3,50.5,38.3,25.2,21.0,16.7,54,32,25,31.77,31.77,7,4,18,0.00
2013-3-2,62.6,44.4,36.8,32.2,26.4,20.4,65,51,22,31.77,31.77,3,1,6,0.00
2013-3-3,55.6,47.3,40.5,32.4,27.7,16.9,72,47,33,31.77,31.77,3,1,11,0.00
2013-3-4,55.2,42.9,35.2,42.5,32.9,21.0,80,68,51,31.77,31.77,3,1,10,0.00
2013-3-5,60.5,41.9,32.9,41.8,29.7,21.1,79,62,40,31.77,31.77,3,1,10,0.00
2013-3-6,53.4,38.5,29.3,36.4,23.9,10.1,86,59,23,31.77,31.77,4,1,10,0.00
2013-3-7,42.1,35.2,28.2,35.2,31.4,26.4,94,86,68,31.77,31.77,2,0,7,0.02
2013-3-8,31.5,28.6,25.7,30.2,26.7,23.9,95,93,86,31.77,31.77,2,0,7,0.01
2013-3-9,37.7,32.5,28.3,33.2,29.9,25.9,96,91,64,31.77,31.77,3,0,10,0.24
2013-3-10,55.1,37.9,26.1,33.3,28.2,17.6,95,71,30,31.77,31.77,3,1,18,0.87
2013-3-11,62.2,42.6,30.8,34.3,28.2,23.2,79,60,25,31.77,31.77,4,2,6,0.11
2013-3-12,66.8,53.2,37.1,38.8,31.0,21.2,71,46,28,31.77,31.77,4,2,9,0.00
2013-3-13,72.3,54.2,39.6,42.9,32.4,21.4,70,46,26,31.77,31.77,4,2,9,0.00
2013-3-14,76.1,58.5,43.3,44.0,34.4,21.8,65,43,22,31.77,31.77,4,2,10,0.00
2013-3-15,73.6,56.5,44.0,44.9,34.6,22.4,74,47,23,31.77,31.77,4,1,9,0.00
2013-3-16,68.9,56.4,44.0,40.0,29.2,14.1,60,37,20,31.77,31.77,3,1,11,0.00
2013-3-17,67.0,51.8,40.7,41.9,29.0,15.0,66,43,21,31.77,31.77,4,1,13,0.00
2013-3-18,64.5,51.0,39.8,41.5,26.8,14.1,53,39,24,31.77,31.77,2,0,9,0.00
2013-3-19,63.4,52.3,42.6,41.5,32.9,20.7,75,49,32,31.77,31.77,5,1,23,0.00
2013-3-20,61.4,52.3,42.7,38.3,32.5,25.4,72,49,27,31.77,31.77,4,1,17,0.00
2013-3-21,64.5,51.7,40.6,42.1,31.5,10.8,75,48,20,31.77,31.77,3,1,15,0.00
2013-3-22,62.7,49.2,36.8,38.5,26.1,15.4,67,42,26,31.77,31.77,3,1,11,0.00
2013-3-23,63.9,48.2,35.7,35.2,25.1,15.0,64,42,21,31.77,31.77,2,1,11,0.00
2013-3-24,64.3,47.3,37.5,35.5,28.4,22.8,65,50,30,31.77,31.77,2,0,6,0.00
2013-3-25,65.6,50.4,38.3,37.4,26.9,18.5,64,41,25,31.77,31.77,2,1,9,0.00
2013-3-26,62.6,51.3,37.0,31.9,25.3,16.6,58,38,23,31.77,31.77,3,1,9,0.00
2013-3-27,59.0,50.7,40.4,39.6,32.7,19.9,69,51,32,31.77,31.77,2,1,11,0.00
2013-3-28,63.1,49.0,38.1,37.6,31.8,27.0,68,53,35,31.77,31.77,2,1,10,0.00
2013-3-29,65.3,51.1,38.9,39.6,33.7,26.9,71,53,28,31.77,31.77,3,1,9,0.00
2013-3-30,64.0,52.2,42.5,44.6,36.6,31.5,77,56,36,31.77,31.77,2,0,9,0.00
2013-3-31,55.2,44.9,32.8,41.2,35.7,28.8,86,71,45,31.77,31.77,3,1,13,0.00